sensor_id;sensor_type;location;lat;lon;timestamp;temperature;humidity
61912;DHT22;49973;52.084;5.412;2023-04-06T00:00:08;2.00;59.10
61912;DHT22;49973;52.084;5.412;2023-04-06T00:02:37;1.90;59.20
61912;DHT22;49973;52.084;5.412;2023-04-06T00:05:08;1.90;59.20
61912;DHT22;49973;52.084;5.412;2023-04-06T00:07:36;1.90;59.20
61912;DHT22;49973;52.084;5.412;2023-04-06T00:10:06;1.90;59.20
61912;DHT22;49973;52.084;5.412;2023-04-06T00:12:35;1.90;59.30
61912;DHT22;49973;52.084;5.412;2023-04-06T00:15:04;1.90;59.30
61912;DHT22;49973;52.084;5.412;2023-04-06T00:17:33;1.80;59.30
61912;DHT22;49973;52.084;5.412;2023-04-06T00:20:03;1.80;59.50
61912;DHT22;49973;52.084;5.412;2023-04-06T00:22:33;1.80;59.50
61912;DHT22;49973;52.084;5.412;2023-04-06T00:25:03;1.70;59.50
61912;DHT22;49973;52.084;5.412;2023-04-06T00:27:32;1.70;59.40
61912;DHT22;49973;52.084;5.412;2023-04-06T00:30:00;1.70;59.50
61912;DHT22;49973;52.084;5.412;2023-04-06T00:32:29;1.70;59.60
61912;DHT22;49973;52.084;5.412;2023-04-06T00:34:58;1.60;59.50
61912;DHT22;49973;52.084;5.412;2023-04-06T00:37:26;1.60;59.50
61912;DHT22;49973;52.084;5.412;2023-04-06T00:39:56;1.60;59.60
61912;DHT22;49973;52.084;5.412;2023-04-06T00:42:25;1.60;59.70
61912;DHT22;49973;52.084;5.412;2023-04-06T00:44:55;1.60;59.70
61912;DHT22;49973;52.084;5.412;2023-04-06T00:47:24;1.60;59.80
61912;DHT22;49973;52.084;5.412;2023-04-06T00:49:54;1.50;59.70
61912;DHT22;49973;52.084;5.412;2023-04-06T00:52:22;1.60;59.90
61912;DHT22;49973;52.084;5.412;2023-04-06T00:54:53;1.50;59.80
61912;DHT22;49973;52.084;5.412;2023-04-06T00:57:24;1.70;60.00
61912;DHT22;49973;52.084;5.412;2023-04-06T00:59:55;1.50;59.90
61912;DHT22;49973;52.084;5.412;2023-04-06T01:02:24;1.50;60.00
61912;DHT22;49973;52.084;5.412;2023-04-06T01:04:54;1.50;60.00
61912;DHT22;49973;52.084;5.412;2023-04-06T01:07:28;1.50;60.00
61912;DHT22;49973;52.084;5.412;2023-04-06T01:10:06;1.50;60.00
61912;DHT22;49973;52.084;5.412;2023-04-06T01:12:37;1.50;60.10
61912;DHT22;49973;52.084;5.412;2023-04-06T01:15:16;1.50;61.00
61912;DHT22;49973;52.084;5.412;2023-04-06T01:17:49;1.50;60.30
61912;DHT22;49973;52.084;5.412;2023-04-06T01:20:19;1.60;60.50
61912;DHT22;49973;52.084;5.412;2023-04-06T01:22:49;1.60;60.50
61912;DHT22;49973;52.084;5.412;2023-04-06T01:25:18;1.70;60.70
61912;DHT22;49973;52.084;5.412;2023-04-06T01:28:05;1.70;60.70
61912;DHT22;49973;52.084;5.412;2023-04-06T01:31:03;1.80;60.80
61912;DHT22;49973;52.084;5.412;2023-04-06T01:33:49;1.80;60.80
61912;DHT22;49973;52.084;5.412;2023-04-06T01:36:21;1.90;60.90
61912;DHT22;49973;52.084;5.412;2023-04-06T01:39:00;1.90;61.10
61912;DHT22;49973;52.084;5.412;2023-04-06T01:41:34;2.00;61.30
61912;DHT22;49973;52.084;5.412;2023-04-06T01:44:03;2.00;61.40
61912;DHT22;49973;52.084;5.412;2023-04-06T01:46:32;2.10;61.50
61912;DHT22;49973;52.084;5.412;2023-04-06T01:49:03;2.20;61.60
61912;DHT22;49973;52.084;5.412;2023-04-06T01:51:35;2.20;61.70
61912;DHT22;49973;52.084;5.412;2023-04-06T01:54:08;2.30;61.80
61912;DHT22;49973;52.084;5.412;2023-04-06T01:56:57;2.30;61.80
61912;DHT22;49973;52.084;5.412;2023-04-06T01:59:33;2.40;61.90
61912;DHT22;49973;52.084;5.412;2023-04-06T02:02:07;2.40;62.00
61912;DHT22;49973;52.084;5.412;2023-04-06T02:04:38;2.50;62.20
61912;DHT22;49973;52.084;5.412;2023-04-06T02:07:10;2.50;62.20
61912;DHT22;49973;52.084;5.412;2023-04-06T02:09:40;2.60;62.30
61912;DHT22;49973;52.084;5.412;2023-04-06T02:12:15;2.60;62.40
61912;DHT22;49973;52.084;5.412;2023-04-06T02:14:43;2.60;62.40
61912;DHT22;49973;52.084;5.412;2023-04-06T02:17:12;2.70;62.60
61912;DHT22;49973;52.084;5.412;2023-04-06T02:19:41;2.70;62.60
61912;DHT22;49973;52.084;5.412;2023-04-06T02:22:09;2.70;62.70
61912;DHT22;49973;52.084;5.412;2023-04-06T02:24:40;2.80;63.00
61912;DHT22;49973;52.084;5.412;2023-04-06T02:27:08;2.80;63.00
61912;DHT22;49973;52.084;5.412;2023-04-06T02:29:37;2.80;63.10
61912;DHT22;49973;52.084;5.412;2023-04-06T02:32:06;3.00;63.30
61912;DHT22;49973;52.084;5.412;2023-04-06T02:34:35;2.90;63.20
61912;DHT22;49973;52.084;5.412;2023-04-06T02:37:04;3.00;63.30
61912;DHT22;49973;52.084;5.412;2023-04-06T02:39:33;3.00;63.40
61912;DHT22;49973;52.084;5.412;2023-04-06T02:42:04;3.00;63.50
61912;DHT22;49973;52.084;5.412;2023-04-06T02:44:33;3.10;63.60
61912;DHT22;49973;52.084;5.412;2023-04-06T02:47:02;3.10;63.60
61912;DHT22;49973;52.084;5.412;2023-04-06T02:49:31;3.10;63.70
61912;DHT22;49973;52.084;5.412;2023-04-06T02:52:00;3.10;63.70
61912;DHT22;49973;52.084;5.412;2023-04-06T02:54:32;3.10;63.80
61912;DHT22;49973;52.084;5.412;2023-04-06T02:57:04;3.20;63.90
61912;DHT22;49973;52.084;5.412;2023-04-06T02:59:43;3.20;64.00
61912;DHT22;49973;52.084;5.412;2023-04-06T03:02:23;3.20;64.10
61912;DHT22;49973;52.084;5.412;2023-04-06T03:04:56;3.20;64.00
61912;DHT22;49973;52.084;5.412;2023-04-06T03:07:30;3.20;64.10
61912;DHT22;49973;52.084;5.412;2023-04-06T03:09:59;3.30;64.20
61912;DHT22;49973;52.084;5.412;2023-04-06T03:12:32;3.40;64.50
61912;DHT22;49973;52.084;5.412;2023-04-06T03:15:16;3.30;64.40
61912;DHT22;49973;52.084;5.412;2023-04-06T03:17:50;3.40;64.60
61912;DHT22;49973;52.084;5.412;2023-04-06T03:20:32;3.40;64.60
61912;DHT22;49973;52.084;5.412;2023-04-06T03:23:01;3.40;64.70
61912;DHT22;49973;52.084;5.412;2023-04-06T03:25:34;3.40;64.70
61912;DHT22;49973;52.084;5.412;2023-04-06T03:28:07;3.40;64.70
61912;DHT22;49973;52.084;5.412;2023-04-06T03:30:44;3.50;64.90
61912;DHT22;49973;52.084;5.412;2023-04-06T03:33:17;3.50;65.10
61912;DHT22;49973;52.084;5.412;2023-04-06T03:35:53;3.50;65.00
61912;DHT22;49973;52.084;5.412;2023-04-06T03:38:24;3.50;65.00
61912;DHT22;49973;52.084;5.412;2023-04-06T03:40:54;3.60;65.20
61912;DHT22;49973;52.084;5.412;2023-04-06T03:43:27;3.60;65.30
61912;DHT22;49973;52.084;5.412;2023-04-06T03:45:56;3.60;65.40
61912;DHT22;49973;52.084;5.412;2023-04-06T03:48:26;3.50;65.30
61912;DHT22;49973;52.084;5.412;2023-04-06T03:50:55;3.50;65.50
61912;DHT22;49973;52.084;5.412;2023-04-06T03:53:26;3.50;65.50
61912;DHT22;49973;52.084;5.412;2023-04-06T03:55:55;3.50;65.50
61912;DHT22;49973;52.084;5.412;2023-04-06T03:58:23;3.60;65.70
61912;DHT22;49973;52.084;5.412;2023-04-06T04:00:53;3.60;65.70
61912;DHT22;49973;52.084;5.412;2023-04-06T04:03:22;3.60;66.50
61912;DHT22;49973;52.084;5.412;2023-04-06T04:05:54;3.60;65.90
61912;DHT22;49973;52.084;5.412;2023-04-06T04:08:25;3.60;65.90
61912;DHT22;49973;52.084;5.412;2023-04-06T04:10:53;3.60;65.90
61912;DHT22;49973;52.084;5.412;2023-04-06T04:13:22;3.60;66.00
61912;DHT22;49973;52.084;5.412;2023-04-06T04:15:53;3.60;66.10
61912;DHT22;49973;52.084;5.412;2023-04-06T04:18:22;3.70;66.20
61912;DHT22;49973;52.084;5.412;2023-04-06T04:20:50;3.70;66.20
61912;DHT22;49973;52.084;5.412;2023-04-06T04:23:21;3.70;66.40
61912;DHT22;49973;52.084;5.412;2023-04-06T04:25:50;3.70;66.30
61912;DHT22;49973;52.084;5.412;2023-04-06T04:28:19;3.80;66.50
61912;DHT22;49973;52.084;5.412;2023-04-06T04:30:48;3.90;66.60
61912;DHT22;49973;52.084;5.412;2023-04-06T04:33:18;4.00;66.70
61912;DHT22;49973;52.084;5.412;2023-04-06T04:35:46;4.10;66.70
61912;DHT22;49973;52.084;5.412;2023-04-06T04:38:19;4.20;66.80
61912;DHT22;49973;52.084;5.412;2023-04-06T04:40:52;4.20;66.80
61912;DHT22;49973;52.084;5.412;2023-04-06T04:43:22;4.40;66.90
61912;DHT22;49973;52.084;5.412;2023-04-06T04:45:50;4.40;67.10
61912;DHT22;49973;52.084;5.412;2023-04-06T04:48:41;4.40;66.90
61912;DHT22;49973;52.084;5.412;2023-04-06T04:51:10;4.50;67.00
61912;DHT22;49973;52.084;5.412;2023-04-06T04:54:01;4.40;66.90
61912;DHT22;49973;52.084;5.412;2023-04-06T04:56:32;4.40;66.90
61912;DHT22;49973;52.084;5.412;2023-04-06T04:59:26;4.40;67.00
61912;DHT22;49973;52.084;5.412;2023-04-06T05:02:03;4.30;66.90
61912;DHT22;49973;52.084;5.412;2023-04-06T05:04:43;4.30;67.00
61912;DHT22;49973;52.084;5.412;2023-04-06T05:07:18;4.30;67.10
61912;DHT22;49973;52.084;5.412;2023-04-06T05:09:49;4.30;67.20
61912;DHT22;49973;52.084;5.412;2023-04-06T05:12:19;4.40;67.30
61912;DHT22;49973;52.084;5.412;2023-04-06T05:14:58;4.40;67.40
61912;DHT22;49973;52.084;5.412;2023-04-06T05:17:27;4.50;67.60
61912;DHT22;49973;52.084;5.412;2023-04-06T05:19:58;4.60;67.70
61912;DHT22;49973;52.084;5.412;2023-04-06T05:22:29;4.60;67.80
61912;DHT22;49973;52.084;5.412;2023-04-06T05:25:06;4.70;68.00
61912;DHT22;49973;52.084;5.412;2023-04-06T05:27:35;4.80;68.10
61912;DHT22;49973;52.084;5.412;2023-04-06T05:30:09;4.90;68.20
61912;DHT22;49973;52.084;5.412;2023-04-06T05:32:44;4.90;68.30
61912;DHT22;49973;52.084;5.412;2023-04-06T05:35:16;5.00;68.40
61912;DHT22;49973;52.084;5.412;2023-04-06T05:37:48;5.10;68.60
61912;DHT22;49973;52.084;5.412;2023-04-06T05:40:20;5.20;68.70
61912;DHT22;49973;52.084;5.412;2023-04-06T05:42:49;5.30;68.80
61912;DHT22;49973;52.084;5.412;2023-04-06T05:45:20;5.40;69.00
61912;DHT22;49973;52.084;5.412;2023-04-06T05:47:53;5.50;69.10
61912;DHT22;49973;52.084;5.412;2023-04-06T05:50:27;5.50;69.20
61912;DHT22;49973;52.084;5.412;2023-04-06T05:52:57;5.60;69.40
61912;DHT22;49973;52.084;5.412;2023-04-06T05:55:30;5.70;69.30
61912;DHT22;49973;52.084;5.412;2023-04-06T05:58:09;5.80;69.50
61912;DHT22;49973;52.084;5.412;2023-04-06T06:00:38;5.90;69.60
61912;DHT22;49973;52.084;5.412;2023-04-06T06:03:09;5.90;69.60
61912;DHT22;49973;52.084;5.412;2023-04-06T06:05:42;6.00;69.90
61912;DHT22;49973;52.084;5.412;2023-04-06T06:08:17;6.10;70.10
61912;DHT22;49973;52.084;5.412;2023-04-06T06:10:48;6.20;70.30
61912;DHT22;49973;52.084;5.412;2023-04-06T06:13:20;6.40;70.60
61912;DHT22;49973;52.084;5.412;2023-04-06T06:15:49;6.40;70.60
61912;DHT22;49973;52.084;5.412;2023-04-06T06:18:20;6.60;70.90
61912;DHT22;49973;52.084;5.412;2023-04-06T06:20:52;6.60;71.00
61912;DHT22;49973;52.084;5.412;2023-04-06T06:23:21;6.50;70.90
61912;DHT22;49973;52.084;5.412;2023-04-06T06:25:50;6.70;71.10
61912;DHT22;49973;52.084;5.412;2023-04-06T06:28:21;6.70;70.90
61912;DHT22;49973;52.084;5.412;2023-04-06T06:30:50;6.70;71.10
61912;DHT22;49973;52.084;5.412;2023-04-06T06:33:22;6.70;70.90
61912;DHT22;49973;52.084;5.412;2023-04-06T06:35:54;6.70;71.00
61912;DHT22;49973;52.084;5.412;2023-04-06T06:38:23;6.80;71.00
61912;DHT22;49973;52.084;5.412;2023-04-06T06:40:53;6.80;71.00
61912;DHT22;49973;52.084;5.412;2023-04-06T06:43:24;6.90;71.20
61912;DHT22;49973;52.084;5.412;2023-04-06T06:45:59;7.10;71.50
61912;DHT22;49973;52.084;5.412;2023-04-06T06:48:27;7.20;71.60
61912;DHT22;49973;52.084;5.412;2023-04-06T06:50:58;7.40;72.00
61912;DHT22;49973;52.084;5.412;2023-04-06T06:53:26;7.60;72.30
61912;DHT22;49973;52.084;5.412;2023-04-06T06:55:55;7.70;72.30
61912;DHT22;49973;52.084;5.412;2023-04-06T06:58:24;7.90;72.80
61912;DHT22;49973;52.084;5.412;2023-04-06T07:00:56;8.10;73.30
61912;DHT22;49973;52.084;5.412;2023-04-06T07:03:27;8.30;73.70
61912;DHT22;49973;52.084;5.412;2023-04-06T07:05:55;8.50;74.10
61912;DHT22;49973;52.084;5.412;2023-04-06T07:08:26;8.60;74.30
61912;DHT22;49973;52.084;5.412;2023-04-06T07:10:55;8.70;74.30
61912;DHT22;49973;52.084;5.412;2023-04-06T07:13:24;8.70;74.00
61912;DHT22;49973;52.084;5.412;2023-04-06T07:15:57;8.70;73.70
61912;DHT22;49973;52.084;5.412;2023-04-06T07:18:26;8.50;73.30
61912;DHT22;49973;52.084;5.412;2023-04-06T07:20:55;8.40;73.10
61912;DHT22;49973;52.084;5.412;2023-04-06T07:23:26;8.30;73.00
61912;DHT22;49973;52.084;5.412;2023-04-06T07:25:55;8.20;72.90
61912;DHT22;49973;52.084;5.412;2023-04-06T07:28:23;8.20;72.90
61912;DHT22;49973;52.084;5.412;2023-04-06T07:30:56;8.10;72.70
61912;DHT22;49973;52.084;5.412;2023-04-06T07:33:26;8.00;72.60
61912;DHT22;49973;52.084;5.412;2023-04-06T07:35:59;7.90;72.60
61912;DHT22;49973;52.084;5.412;2023-04-06T07:38:30;7.90;72.70
61912;DHT22;49973;52.084;5.412;2023-04-06T07:40:59;7.90;72.80
61912;DHT22;49973;52.084;5.412;2023-04-06T07:43:31;7.90;72.70
61912;DHT22;49973;52.084;5.412;2023-04-06T07:46:01;7.90;72.80
61912;DHT22;49973;52.084;5.412;2023-04-06T07:48:31;7.90;72.90
61912;DHT22;49973;52.084;5.412;2023-04-06T07:51:03;8.00;73.00
61912;DHT22;49973;52.084;5.412;2023-04-06T07:53:37;8.00;73.20
61912;DHT22;49973;52.084;5.412;2023-04-06T07:56:06;8.00;73.10
61912;DHT22;49973;52.084;5.412;2023-04-06T07:58:34;8.00;73.20
61912;DHT22;49973;52.084;5.412;2023-04-06T08:01:03;8.20;74.20
61912;DHT22;49973;52.084;5.412;2023-04-06T08:03:33;8.20;73.60
61912;DHT22;49973;52.084;5.412;2023-04-06T08:06:03;8.30;73.90
61912;DHT22;49973;52.084;5.412;2023-04-06T08:08:32;8.40;74.00
61912;DHT22;49973;52.084;5.412;2023-04-06T08:11:02;8.50;74.20
61912;DHT22;49973;52.084;5.412;2023-04-06T08:13:31;8.70;74.50
61912;DHT22;49973;52.084;5.412;2023-04-06T08:15:59;8.80;74.50
61912;DHT22;49973;52.084;5.412;2023-04-06T08:18:28;8.90;74.60
61912;DHT22;49973;52.084;5.412;2023-04-06T08:20:57;8.90;74.70
61912;DHT22;49973;52.084;5.412;2023-04-06T08:23:26;9.00;74.70
61912;DHT22;49973;52.084;5.412;2023-04-06T08:25:54;9.10;74.70
61912;DHT22;49973;52.084;5.412;2023-04-06T08:28:24;9.20;74.90
61912;DHT22;49973;52.084;5.412;2023-04-06T08:30:53;9.20;75.00
61912;DHT22;49973;52.084;5.412;2023-04-06T08:33:22;9.30;75.10
61912;DHT22;49973;52.084;5.412;2023-04-06T08:35:50;9.40;75.30
61912;DHT22;49973;52.084;5.412;2023-04-06T08:38:19;9.60;75.50
61912;DHT22;49973;52.084;5.412;2023-04-06T08:40:48;9.80;75.80
61912;DHT22;49973;52.084;5.412;2023-04-06T08:43:19;9.80;76.00
61912;DHT22;49973;52.084;5.412;2023-04-06T08:45:52;9.90;76.10
61912;DHT22;49973;52.084;5.412;2023-04-06T08:48:21;10.00;75.10
61912;DHT22;49973;52.084;5.412;2023-04-06T08:50:51;10.10;75.20
61912;DHT22;49973;52.084;5.412;2023-04-06T08:53:20;10.20;75.20
61912;DHT22;49973;52.084;5.412;2023-04-06T08:55:50;10.20;75.30
61912;DHT22;49973;52.084;5.412;2023-04-06T08:58:19;10.40;75.60
61912;DHT22;49973;52.084;5.412;2023-04-06T09:01:07;10.40;75.40
61912;DHT22;49973;52.084;5.412;2023-04-06T09:03:38;10.40;75.60
61912;DHT22;49973;52.084;5.412;2023-04-06T09:06:08;10.50;75.70
61912;DHT22;49973;52.084;5.412;2023-04-06T09:08:39;10.60;75.90
61912;DHT22;49973;52.084;5.412;2023-04-06T09:11:08;10.70;76.10
61912;DHT22;49973;52.084;5.412;2023-04-06T09:13:48;10.80;76.10
61912;DHT22;49973;52.084;5.412;2023-04-06T09:16:19;10.80;76.20
61912;DHT22;49973;52.084;5.412;2023-04-06T09:18:49;10.90;76.30
61912;DHT22;49973;52.084;5.412;2023-04-06T09:21:18;11.00;76.50
61912;DHT22;49973;52.084;5.412;2023-04-06T09:23:58;11.00;76.60
61912;DHT22;49973;52.084;5.412;2023-04-06T09:26:28;11.10;76.80
61912;DHT22;49973;52.084;5.412;2023-04-06T09:28:58;11.20;76.20
61912;DHT22;49973;52.084;5.412;2023-04-06T09:31:30;11.30;77.00
61912;DHT22;49973;52.084;5.412;2023-04-06T09:34:01;11.30;77.00
61912;DHT22;49973;52.084;5.412;2023-04-06T09:36:31;11.40;77.30
61912;DHT22;49973;52.084;5.412;2023-04-06T09:39:01;11.40;77.30
61912;DHT22;49973;52.084;5.412;2023-04-06T09:41:31;11.50;77.40
61912;DHT22;49973;52.084;5.412;2023-04-06T09:44:04;11.60;77.50
61912;DHT22;49973;52.084;5.412;2023-04-06T09:46:36;11.60;77.60
61912;DHT22;49973;52.084;5.412;2023-04-06T09:49:27;11.70;77.70
61912;DHT22;49973;52.084;5.412;2023-04-06T09:52:00;11.70;77.80
61912;DHT22;49973;52.084;5.412;2023-04-06T09:54:30;11.80;78.00
61912;DHT22;49973;52.084;5.412;2023-04-06T09:57:03;11.90;78.20
61912;DHT22;49973;52.084;5.412;2023-04-06T09:59:41;11.90;78.40
61912;DHT22;49973;52.084;5.412;2023-04-06T10:02:20;12.00;78.50
61912;DHT22;49973;52.084;5.412;2023-04-06T10:04:56;12.00;78.70
61912;DHT22;49973;52.084;5.412;2023-04-06T10:07:26;12.20;79.10
61912;DHT22;49973;52.084;5.412;2023-04-06T10:09:55;12.20;79.40
61912;DHT22;49973;52.084;5.412;2023-04-06T10:12:24;12.30;79.40
61912;DHT22;49973;52.084;5.412;2023-04-06T10:14:53;12.30;79.40
61912;DHT22;49973;52.084;5.412;2023-04-06T10:17:24;12.30;79.50
61912;DHT22;49973;52.084;5.412;2023-04-06T10:19:54;12.30;79.50
61912;DHT22;49973;52.084;5.412;2023-04-06T10:22:34;12.20;79.60
61912;DHT22;49973;52.084;5.412;2023-04-06T10:25:04;12.20;79.60
61912;DHT22;49973;52.084;5.412;2023-04-06T10:27:33;12.20;79.70
61912;DHT22;49973;52.084;5.412;2023-04-06T10:30:02;12.20;79.70
61912;DHT22;49973;52.084;5.412;2023-04-06T10:32:37;12.20;80.00
61912;DHT22;49973;52.084;5.412;2023-04-06T10:35:07;12.20;80.10
61912;DHT22;49973;52.084;5.412;2023-04-06T10:37:52;12.00;80.00
61912;DHT22;49973;52.084;5.412;2023-04-06T10:40:25;11.90;80.20
61912;DHT22;49973;52.084;5.412;2023-04-06T10:42:55;11.80;79.90
61912;DHT22;49973;52.084;5.412;2023-04-06T10:45:25;11.60;79.80
61912;DHT22;49973;52.084;5.412;2023-04-06T10:47:56;11.60;80.10
61912;DHT22;49973;52.084;5.412;2023-04-06T10:50:25;11.40;80.10
61912;DHT22;49973;52.084;5.412;2023-04-06T10:53:00;11.30;79.90
61912;DHT22;49973;52.084;5.412;2023-04-06T10:55:29;11.20;80.10
61912;DHT22;49973;52.084;5.412;2023-04-06T10:57:59;11.10;80.30
61912;DHT22;49973;52.084;5.412;2023-04-06T11:00:27;10.90;80.00
61912;DHT22;49973;52.084;5.412;2023-04-06T11:03:10;10.80;80.10
61912;DHT22;49973;52.084;5.412;2023-04-06T11:05:43;10.60;79.90
61912;DHT22;49973;52.084;5.412;2023-04-06T11:08:25;10.50;80.20
61912;DHT22;49973;52.084;5.412;2023-04-06T11:11:04;10.40;80.40
61912;DHT22;49973;52.084;5.412;2023-04-06T11:13:40;10.30;80.30
61912;DHT22;49973;52.084;5.412;2023-04-06T11:16:13;10.10;80.30
61912;DHT22;49973;52.084;5.412;2023-04-06T11:18:55;10.10;80.40
61912;DHT22;49973;52.084;5.412;2023-04-06T11:21:34;10.00;80.60
61912;DHT22;49973;52.084;5.412;2023-04-06T11:24:08;9.90;81.80
61912;DHT22;49973;52.084;5.412;2023-04-06T11:26:41;9.80;81.70
61912;DHT22;49973;52.084;5.412;2023-04-06T11:29:11;9.80;81.90
61912;DHT22;49973;52.084;5.412;2023-04-06T11:31:41;9.80;82.00
61912;DHT22;49973;52.084;5.412;2023-04-06T11:34:13;9.80;82.20
61912;DHT22;49973;52.084;5.412;2023-04-06T11:36:42;9.80;82.30
61912;DHT22;49973;52.084;5.412;2023-04-06T11:39:12;9.80;82.60
61912;DHT22;49973;52.084;5.412;2023-04-06T11:41:41;9.70;82.40
61912;DHT22;49973;52.084;5.412;2023-04-06T11:44:10;9.70;82.50
61912;DHT22;49973;52.084;5.412;2023-04-06T11:46:39;9.70;82.60
61912;DHT22;49973;52.084;5.412;2023-04-06T11:49:08;9.60;82.70
61912;DHT22;49973;52.084;5.412;2023-04-06T11:51:38;9.50;82.90
61912;DHT22;49973;52.084;5.412;2023-04-06T11:54:06;9.40;82.90
61912;DHT22;49973;52.084;5.412;2023-04-06T11:56:35;9.50;83.20
61912;DHT22;49973;52.084;5.412;2023-04-06T11:59:04;9.40;83.10
61912;DHT22;49973;52.084;5.412;2023-04-06T12:01:32;9.40;83.30
61912;DHT22;49973;52.084;5.412;2023-04-06T12:04:05;9.50;83.60
61912;DHT22;49973;52.084;5.412;2023-04-06T12:06:34;9.50;83.60
61912;DHT22;49973;52.084;5.412;2023-04-06T12:09:04;9.50;83.90
61912;DHT22;49973;52.084;5.412;2023-04-06T12:11:33;9.40;83.90
61912;DHT22;49973;52.084;5.412;2023-04-06T12:14:01;9.40;84.00
61912;DHT22;49973;52.084;5.412;2023-04-06T12:16:32;9.30;84.10
61912;DHT22;49973;52.084;5.412;2023-04-06T12:19:01;9.30;84.20
61912;DHT22;49973;52.084;5.412;2023-04-06T12:21:31;9.30;84.40
61912;DHT22;49973;52.084;5.412;2023-04-06T12:23:59;9.20;84.30
61912;DHT22;49973;52.084;5.412;2023-04-06T12:26:30;9.10;84.40
61912;DHT22;49973;52.084;5.412;2023-04-06T12:28:59;9.10;84.60
61912;DHT22;49973;52.084;5.412;2023-04-06T12:31:35;9.10;84.60
61912;DHT22;49973;52.084;5.412;2023-04-06T12:34:06;9.00;84.70
61912;DHT22;49973;52.084;5.412;2023-04-06T12:36:36;9.00;84.80
61912;DHT22;49973;52.084;5.412;2023-04-06T12:39:05;8.90;84.80
61912;DHT22;49973;52.084;5.412;2023-04-06T12:41:36;8.90;85.00
61912;DHT22;49973;52.084;5.412;2023-04-06T12:44:07;8.90;85.20
61912;DHT22;49973;52.084;5.412;2023-04-06T12:46:36;8.90;85.30
61912;DHT22;49973;52.084;5.412;2023-04-06T12:49:05;8.90;85.40
61912;DHT22;49973;52.084;5.412;2023-04-06T12:51:33;8.80;85.50
61912;DHT22;49973;52.084;5.412;2023-04-06T12:54:02;8.90;85.80
61912;DHT22;49973;52.084;5.412;2023-04-06T12:56:31;8.80;85.90
61912;DHT22;49973;52.084;5.412;2023-04-06T12:59:01;8.90;86.00
61912;DHT22;49973;52.084;5.412;2023-04-06T13:01:30;8.90;86.20
61912;DHT22;49973;52.084;5.412;2023-04-06T13:03:58;9.00;86.60
61912;DHT22;49973;52.084;5.412;2023-04-06T13:06:27;9.00;86.60
61912;DHT22;49973;52.084;5.412;2023-04-06T13:08:56;9.00;86.70
61912;DHT22;49973;52.084;5.412;2023-04-06T13:11:26;9.00;86.80
61912;DHT22;49973;52.084;5.412;2023-04-06T13:13:55;8.90;86.90
61912;DHT22;49973;52.084;5.412;2023-04-06T13:16:25;8.90;86.90
61912;DHT22;49973;52.084;5.412;2023-04-06T13:18:53;8.90;87.30
61912;DHT22;49973;52.084;5.412;2023-04-06T13:21:22;8.80;87.30
61912;DHT22;49973;52.084;5.412;2023-04-06T13:23:51;8.80;87.30
61912;DHT22;49973;52.084;5.412;2023-04-06T13:26:19;8.80;87.60
61912;DHT22;49973;52.084;5.412;2023-04-06T13:28:48;8.80;87.80
61912;DHT22;49973;52.084;5.412;2023-04-06T13:31:17;8.70;87.70
61912;DHT22;49973;52.084;5.412;2023-04-06T13:33:47;8.70;87.80
61912;DHT22;49973;52.084;5.412;2023-04-06T13:36:16;8.70;88.00
61912;DHT22;49973;52.084;5.412;2023-04-06T13:38:44;8.70;88.00
61912;DHT22;49973;52.084;5.412;2023-04-06T13:41:18;8.70;88.20
61912;DHT22;49973;52.084;5.412;2023-04-06T13:43:48;8.70;88.50
61912;DHT22;49973;52.084;5.412;2023-04-06T13:46:17;8.70;88.60
61912;DHT22;49973;52.084;5.412;2023-04-06T13:48:47;8.70;88.70
61912;DHT22;49973;52.084;5.412;2023-04-06T13:51:17;8.60;88.90
61912;DHT22;49973;52.084;5.412;2023-04-06T13:53:45;8.50;88.90
61912;DHT22;49973;52.084;5.412;2023-04-06T13:56:14;8.50;89.10
61912;DHT22;49973;52.084;5.412;2023-04-06T13:58:42;8.50;89.40
61912;DHT22;49973;52.084;5.412;2023-04-06T14:01:11;8.50;89.50
61912;DHT22;49973;52.084;5.412;2023-04-06T14:03:40;8.40;89.60
61912;DHT22;49973;52.084;5.412;2023-04-06T14:06:14;8.50;89.80
61912;DHT22;49973;52.084;5.412;2023-04-06T14:08:57;8.50;90.00
61912;DHT22;49973;52.084;5.412;2023-04-06T14:11:25;8.40;90.00
61912;DHT22;49973;52.084;5.412;2023-04-06T14:13:54;8.40;90.40
61912;DHT22;49973;52.084;5.412;2023-04-06T14:16:25;8.40;90.20
61912;DHT22;49973;52.084;5.412;2023-04-06T14:18:54;8.40;90.30
61912;DHT22;49973;52.084;5.412;2023-04-06T14:21:26;8.40;90.30
61912;DHT22;49973;52.084;5.412;2023-04-06T14:23:55;8.40;90.40
61912;DHT22;49973;52.084;5.412;2023-04-06T14:26:26;8.40;90.80
61912;DHT22;49973;52.084;5.412;2023-04-06T14:28:54;8.40;90.60
61912;DHT22;49973;52.084;5.412;2023-04-06T14:31:23;8.50;90.70
61912;DHT22;49973;52.084;5.412;2023-04-06T14:33:52;8.40;90.70
61912;DHT22;49973;52.084;5.412;2023-04-06T14:36:21;8.50;90.80
61912;DHT22;49973;52.084;5.412;2023-04-06T14:38:51;8.40;90.80
61912;DHT22;49973;52.084;5.412;2023-04-06T14:41:22;8.40;91.00
61912;DHT22;49973;52.084;5.412;2023-04-06T14:43:51;8.40;91.10
61912;DHT22;49973;52.084;5.412;2023-04-06T14:46:20;8.40;91.10
61912;DHT22;49973;52.084;5.412;2023-04-06T14:48:49;8.40;91.10
61912;DHT22;49973;52.084;5.412;2023-04-06T14:51:18;8.40;91.20
61912;DHT22;49973;52.084;5.412;2023-04-06T14:53:46;8.30;91.30
61912;DHT22;49973;52.084;5.412;2023-04-06T14:56:20;8.30;91.30
61912;DHT22;49973;52.084;5.412;2023-04-06T14:58:50;8.40;91.50
61912;DHT22;49973;52.084;5.412;2023-04-06T15:01:18;8.20;91.30
61912;DHT22;49973;52.084;5.412;2023-04-06T15:03:47;8.20;91.50
61912;DHT22;49973;52.084;5.412;2023-04-06T15:06:18;8.10;91.40
61912;DHT22;49973;52.084;5.412;2023-04-06T15:08:48;8.20;91.60
61912;DHT22;49973;52.084;5.412;2023-04-06T15:11:17;8.10;91.70
61912;DHT22;49973;52.084;5.412;2023-04-06T15:13:47;8.20;91.80
61912;DHT22;49973;52.084;5.412;2023-04-06T15:16:15;8.20;91.90
61912;DHT22;49973;52.084;5.412;2023-04-06T15:18:44;8.20;92.00
61912;DHT22;49973;52.084;5.412;2023-04-06T15:21:13;8.20;92.00
61912;DHT22;49973;52.084;5.412;2023-04-06T15:23:41;8.20;92.20
61912;DHT22;49973;52.084;5.412;2023-04-06T15:26:10;8.20;92.30
61912;DHT22;49973;52.084;5.412;2023-04-06T15:28:38;8.20;92.30
61912;DHT22;49973;52.084;5.412;2023-04-06T15:31:14;8.20;92.40
61912;DHT22;49973;52.084;5.412;2023-04-06T15:34:02;8.40;92.70
61912;DHT22;49973;52.084;5.412;2023-04-06T15:36:31;8.30;92.60
61912;DHT22;49973;52.084;5.412;2023-04-06T15:39:00;8.30;92.70
61912;DHT22;49973;52.084;5.412;2023-04-06T15:41:30;8.30;92.80
61912;DHT22;49973;52.084;5.412;2023-04-06T15:43:58;8.30;92.90
61912;DHT22;49973;52.084;5.412;2023-04-06T15:46:28;8.30;93.00
61912;DHT22;49973;52.084;5.412;2023-04-06T15:48:57;8.30;93.10
61912;DHT22;49973;52.084;5.412;2023-04-06T15:51:26;8.30;93.10
61912;DHT22;49973;52.084;5.412;2023-04-06T15:53:55;8.30;93.30
61912;DHT22;49973;52.084;5.412;2023-04-06T15:56:24;8.30;93.40
61912;DHT22;49973;52.084;5.412;2023-04-06T15:58:53;8.30;93.40
61912;DHT22;49973;52.084;5.412;2023-04-06T16:01:21;8.30;93.50
61912;DHT22;49973;52.084;5.412;2023-04-06T16:03:51;8.30;93.60
61912;DHT22;49973;52.084;5.412;2023-04-06T16:06:20;8.20;93.60